Incident at DEER LAKE NL (CYDF)

Summary

2010-03-31: SPR901, SAAB SF340A, enroute from St. John?s (CYYT) to Deer Lake (CYDF), reported executing a missed approach at 10:42Z for Runway 07. Pilot advised "ATC had kept us too tight". Time of the missed approach and comments were passed to Air Traffic Control (ATC). SPR901 landed at 10:56Z on Runway 07 without incident. METAR CYDF 311100Z 06010KT 2SM -DZ BR SCT003 OVC007 01/M00 A3036 RMK ST3ST5 SLP282

Details


CADORS Number 2010A0264
Occurrence Type Incident
Reported By NAV CANADA
Occurred At 2010-03-31 - 10:42
Day or Night? Day-time
Fatalities 0
Injuries 0
Aerodrome ID CYDF
Aerodrome Name DEER LAKE NL (CYDF)
Geographic Location Newfoundland and Labrador, Canada, North America, Atlantic Region, Deer Lake (CYDF)
TSB Occurrence Number
TSB Class of Investigation
AOR Number 117471-V2
Reported By NAV CANADA
Categories Undershoot/overshoot
Events



Aircraft Details (1 aircraft)

Type Aeroplane
 Silhouette image of Aeroplane
Canadian Registration
Foreign Registration
Country of Registration Canada
Occurrence Type Incident
Owner PROVINCIAL AIRLINES LIMITED
Operator PROVINCIAL AIRLINES LIMITED (2659) Commercial
Make  Silhouette image of SAAB
SAAB
Model SF340A
Year Built
Engine Type Turbo prop
Engine Make
Engine Model
Gear Type Land
Private No
Amateur Built No
Flight Number SPR901
Flight Rule
CARS Subpart
Phase of Flight Approach
Damage No Damage
Fatalities 0
Injuries 0
Events Overshoot/missed approach

Leave a Comment